createdAt,value
2023-11-30T00:00:27.364Z,8.30
2023-11-30T00:02:55.765Z,9.43
2023-11-30T00:05:24.271Z,7.03
2023-11-30T00:07:54.061Z,7.40
2023-11-30T00:10:22.256Z,6.67
2023-11-30T00:12:50.551Z,6.73
2023-11-30T00:15:18.837Z,8.43
2023-11-30T00:17:47.178Z,10.37
2023-11-30T00:20:15.540Z,6.37
2023-11-30T00:22:44.080Z,8.33
2023-11-30T00:25:13.769Z,6.90
2023-11-30T00:27:41.985Z,7.43
2023-11-30T00:30:11.942Z,8.80
2023-11-30T00:32:40.467Z,7.20
2023-11-30T00:35:09.382Z,6.10
2023-11-30T00:37:37.626Z,7.27
2023-11-30T00:40:06.990Z,7.60
2023-11-30T00:42:36.632Z,8.17
2023-11-30T00:45:05.642Z,7.70
2023-11-30T00:47:34.273Z,7.40
2023-11-30T00:50:02.502Z,8.27
2023-11-30T00:52:30.699Z,7.63
2023-11-30T00:54:59.020Z,7.37
2023-11-30T00:57:27.254Z,6.17
2023-11-30T00:59:57.288Z,8.20
2023-11-30T01:02:25.679Z,10.57
2023-11-30T01:04:53.894Z,9.10
2023-11-30T01:07:22.137Z,7.17
2023-11-30T01:09:50.521Z,7.30
2023-11-30T01:12:18.740Z,7.30
2023-11-30T01:14:47.313Z,6.27
2023-11-30T01:17:16.981Z,7.13
2023-11-30T01:19:45.206Z,10.20
2023-11-30T01:22:13.542Z,6.53
2023-11-30T01:24:41.757Z,7.90
2023-11-30T01:27:10.354Z,5.87
2023-11-30T01:29:38.652Z,6.03
2023-11-30T01:32:07.251Z,6.70
2023-11-30T01:34:37.043Z,6.20
2023-11-30T01:37:05.286Z,6.50
2023-11-30T01:39:33.799Z,5.27
2023-11-30T01:42:03.799Z,7.43
2023-11-30T01:44:34.443Z,6.83
2023-11-30T01:47:03.546Z,5.57
2023-11-30T01:49:31.769Z,5.97
2023-11-30T01:52:01.482Z,5.97
2023-11-30T01:54:30.349Z,6.27
2023-11-30T01:56:58.644Z,5.13
2023-11-30T01:59:26.889Z,5.87
2023-11-30T02:01:55.420Z,7.93
2023-11-30T02:04:24.044Z,5.63
2023-11-30T02:06:52.604Z,7.57
2023-11-30T02:09:22.248Z,6.13
2023-11-30T02:11:50.620Z,7.60
2023-11-30T02:14:19.404Z,7.17
2023-11-30T02:16:47.634Z,5.60
2023-11-30T02:19:16.177Z,5.60
2023-11-30T02:21:51.532Z,5.67
2023-11-30T02:24:20.976Z,5.20
2023-11-30T02:26:49.165Z,5.43
2023-11-30T02:29:18.155Z,8.63
2023-11-30T02:31:46.448Z,6.23
2023-11-30T02:34:14.942Z,6.87
2023-11-30T02:36:43.147Z,6.90
2023-11-30T02:39:12.753Z,6.23
2023-11-30T02:41:40.982Z,6.80
2023-11-30T02:44:10.290Z,5.23
2023-11-30T02:46:38.626Z,5.83
2023-11-30T02:49:07.200Z,7.50
2023-11-30T02:51:36.808Z,6.60
2023-11-30T02:54:05.015Z,6.70
2023-11-30T02:56:40.424Z,6.17
2023-11-30T02:59:08.649Z,4.43
2023-11-30T03:01:43.906Z,5.73
2023-11-30T03:04:12.268Z,4.70
2023-11-30T03:06:41.247Z,8.40
2023-11-30T03:09:09.634Z,5.80
2023-11-30T03:11:40.907Z,8.43
2023-11-30T03:14:09.751Z,5.93
2023-11-30T03:16:38.016Z,4.67
2023-11-30T03:19:14.614Z,5.47
2023-11-30T03:21:45.551Z,5.43
2023-11-30T03:24:13.887Z,5.57
2023-11-30T03:26:43.511Z,5.13
2023-11-30T03:29:12.039Z,5.57
2023-11-30T03:31:41.060Z,5.60
2023-11-30T03:34:09.702Z,4.30
2023-11-30T03:36:37.977Z,7.70
2023-11-30T03:39:06.272Z,4.73
2023-11-30T03:41:34.840Z,5.13
2023-11-30T03:44:04.440Z,6.07
2023-11-30T03:46:32.695Z,6.40
2023-11-30T03:49:02.057Z,4.43
2023-11-30T03:51:30.232Z,5.37
2023-11-30T03:53:58.467Z,5.10
2023-11-30T03:56:26.966Z,7.60
2023-11-30T03:58:55.190Z,6.30
2023-11-30T04:01:25.307Z,6.23
2023-11-30T04:03:53.589Z,4.93
2023-11-30T04:06:21.893Z,5.50
2023-11-30T04:08:50.389Z,5.37
2023-11-30T04:11:18.700Z,5.33
2023-11-30T04:13:47.171Z,5.10
2023-11-30T04:16:16.772Z,4.70
2023-11-30T04:18:46.502Z,4.57
2023-11-30T04:21:15.531Z,4.57
2023-11-30T04:23:44.971Z,4.87
2023-11-30T04:26:13.212Z,5.40
2023-11-30T04:28:41.552Z,7.17
2023-11-30T04:31:10.415Z,6.10
2023-11-30T04:33:38.707Z,5.33
2023-11-30T04:36:09.183Z,6.77
2023-11-30T04:38:37.675Z,5.97
2023-11-30T04:41:06.193Z,6.10
2023-11-30T04:43:37.614Z,6.60
2023-11-30T04:46:06.402Z,6.27
2023-11-30T04:48:35.290Z,6.40
2023-11-30T04:51:03.970Z,5.07
2023-11-30T04:53:34.536Z,6.30
2023-11-30T04:56:02.897Z,5.07
2023-11-30T04:58:31.116Z,5.70
2023-11-30T05:00:59.451Z,8.97
2023-11-30T05:03:28.139Z,6.60
2023-11-30T05:05:57.059Z,6.50
2023-11-30T05:08:25.251Z,5.40
2023-11-30T05:10:54.899Z,7.80
2023-11-30T05:13:23.230Z,6.00
2023-11-30T05:15:51.780Z,7.30
2023-11-30T05:18:20.030Z,5.50
2023-11-30T05:20:48.422Z,5.40
2023-11-30T05:23:16.630Z,7.57
2023-11-30T05:25:45.097Z,7.33
2023-11-30T05:28:15.898Z,6.17
2023-11-30T05:30:44.653Z,5.77
2023-11-30T05:33:13.516Z,6.53
2023-11-30T05:35:41.722Z,6.13
2023-11-30T05:38:09.928Z,6.00
2023-11-30T05:40:38.100Z,5.70
2023-11-30T05:43:06.620Z,6.60
2023-11-30T05:45:36.169Z,6.57
2023-11-30T05:48:04.606Z,6.37
2023-11-30T05:50:33.601Z,6.03
2023-11-30T05:53:02.893Z,7.10
2023-11-30T05:55:31.366Z,8.60
2023-11-30T05:57:59.800Z,6.00
2023-11-30T06:00:28.148Z,5.70
2023-11-30T06:02:57.844Z,5.83
2023-11-30T06:05:26.092Z,4.73
2023-11-30T06:07:54.288Z,4.80
2023-11-30T06:10:22.953Z,5.03
2023-11-30T06:12:51.457Z,5.17
2023-11-30T06:15:19.740Z,5.37
2023-11-30T06:17:48.032Z,5.47
2023-11-30T06:20:17.820Z,7.87
2023-11-30T06:22:46.059Z,6.03
2023-11-30T06:25:14.651Z,7.33
2023-11-30T06:27:42.788Z,7.37
2023-11-30T06:30:11.401Z,6.73
2023-11-30T06:32:39.670Z,6.23
2023-11-30T06:35:08.489Z,7.83
2023-11-30T06:37:38.054Z,6.30
2023-11-30T06:40:08.096Z,7.80
2023-11-30T06:42:36.366Z,6.03
2023-11-30T06:45:05.194Z,7.73
2023-11-30T06:47:33.675Z,6.53
2023-11-30T06:50:01.850Z,7.83
2023-11-30T06:52:30.066Z,8.17
2023-11-30T06:54:59.952Z,8.53
2023-11-30T06:57:28.142Z,6.90
2023-11-30T06:59:56.358Z,7.30
2023-11-30T07:02:24.496Z,6.53
2023-11-30T07:04:52.898Z,6.77
2023-11-30T07:07:30.970Z,6.67
2023-11-30T07:10:03.836Z,9.23
2023-11-30T07:12:32.120Z,16.00
2023-11-30T07:15:00.702Z,16.23
2023-11-30T07:17:29.119Z,11.70
2023-11-30T07:19:57.612Z,10.10
2023-11-30T07:22:26.462Z,13.13
2023-11-30T07:24:54.825Z,15.33
2023-11-30T07:27:25.210Z,21.40
2023-11-30T07:29:53.403Z,20.57
2023-11-30T07:32:21.551Z,17.90
2023-11-30T07:34:50.030Z,24.03
2023-11-30T07:37:19.172Z,23.90
2023-11-30T07:39:47.651Z,23.53
2023-11-30T07:42:26.126Z,28.97
2023-11-30T07:45:03.530Z,29.20
2023-11-30T07:47:32.490Z,31.00
2023-11-30T07:50:01.123Z,28.40
2023-11-30T07:52:30.234Z,28.37
2023-11-30T07:54:58.512Z,26.23
2023-11-30T07:57:26.708Z,28.20
2023-11-30T07:59:55.263Z,40.43
2023-11-30T08:02:24.799Z,63.70
2023-11-30T08:04:53.078Z,66.03
2023-11-30T08:07:22.045Z,59.77
2023-11-30T08:09:50.350Z,60.03
2023-11-30T08:12:18.667Z,50.83
2023-11-30T08:14:47.089Z,44.37
2023-11-30T08:17:15.557Z,46.00
2023-11-30T08:19:45.374Z,41.60
2023-11-30T08:22:15.039Z,38.43
2023-11-30T08:24:44.325Z,37.87
2023-11-30T08:27:13.200Z,32.17
2023-11-30T08:29:41.380Z,30.20
2023-11-30T08:32:09.675Z,34.60
2023-11-30T08:34:37.829Z,26.97
2023-11-30T08:37:07.489Z,30.97
2023-11-30T08:39:36.034Z,30.37
2023-11-30T08:42:04.386Z,26.90
2023-11-30T08:44:36.125Z,30.50
2023-11-30T08:47:04.319Z,29.77
2023-11-30T08:49:32.467Z,24.33
2023-11-30T08:52:00.925Z,26.03
2023-11-30T08:54:30.578Z,23.83
2023-11-30T08:56:59.526Z,20.23
2023-11-30T08:59:27.878Z,21.47
2023-11-30T09:01:56.524Z,20.90
2023-11-30T09:04:24.798Z,19.70
2023-11-30T09:06:53.265Z,22.30
2023-11-30T09:09:21.418Z,20.80
2023-11-30T09:11:51.023Z,20.73
2023-11-30T09:14:19.203Z,18.90
2023-11-30T09:16:47.458Z,18.50
2023-11-30T09:19:15.932Z,14.53
2023-11-30T09:21:44.138Z,12.43
2023-11-30T09:24:12.395Z,10.93
2023-11-30T09:26:43.138Z,9.47
2023-11-30T09:29:14.184Z,7.47
2023-11-30T09:31:43.470Z,9.33
2023-11-30T09:34:13.097Z,8.80
2023-11-30T09:36:41.469Z,10.43
2023-11-30T09:39:10.308Z,10.63
2023-11-30T09:41:39.668Z,8.97
2023-11-30T09:44:08.067Z,9.93
2023-11-30T09:46:37.742Z,10.63
2023-11-30T09:49:10.121Z,11.53
2023-11-30T09:51:38.623Z,11.03
2023-11-30T09:54:06.883Z,12.60
2023-11-30T09:56:35.085Z,12.63
2023-11-30T09:59:04.108Z,11.23
2023-11-30T10:01:32.649Z,10.30
2023-11-30T10:04:12.420Z,10.90
2023-11-30T10:06:40.772Z,10.73
2023-11-30T10:09:11.132Z,10.33
2023-11-30T10:11:39.355Z,10.87
2023-11-30T10:14:08.251Z,10.53
2023-11-30T10:16:36.766Z,10.23
2023-11-30T10:19:08.355Z,10.43
2023-11-30T10:21:39.018Z,10.73
2023-11-30T10:24:09.183Z,10.33
2023-11-30T10:26:37.899Z,10.83
2023-11-30T10:29:08.041Z,9.43
2023-11-30T10:31:37.747Z,10.13
2023-11-30T10:34:12.803Z,9.77
2023-11-30T10:36:41.523Z,11.70
2023-11-30T10:39:18.169Z,12.00
2023-11-30T10:41:52.012Z,9.93
2023-11-30T10:44:27.603Z,11.40
2023-11-30T10:46:57.081Z,9.53
2023-11-30T10:49:27.412Z,11.67
2023-11-30T10:51:59.265Z,11.03
2023-11-30T10:54:33.357Z,12.50
2023-11-30T10:57:02.020Z,12.30
2023-11-30T10:59:30.837Z,12.63
2023-11-30T11:01:59.254Z,12.50
2023-11-30T11:04:29.220Z,15.67
2023-11-30T11:07:04.305Z,12.07
2023-11-30T11:09:43.551Z,13.53
2023-11-30T11:12:21.852Z,13.20
2023-11-30T11:14:50.803Z,14.47
2023-11-30T11:17:21.881Z,13.17
2023-11-30T11:19:51.434Z,14.13
2023-11-30T11:22:22.817Z,13.83
2023-11-30T11:24:51.113Z,13.30
2023-11-30T11:27:29.741Z,14.33
2023-11-30T11:29:58.687Z,11.63
2023-11-30T11:32:26.941Z,14.23
2023-11-30T11:34:56.599Z,14.03
2023-11-30T11:37:24.786Z,11.90
2023-11-30T11:39:53.514Z,14.40
2023-11-30T11:42:21.760Z,16.30
2023-11-30T11:44:51.158Z,12.30
2023-11-30T11:47:19.404Z,14.17
2023-11-30T11:49:47.730Z,12.73
2023-11-30T11:52:22.223Z,14.53
2023-11-30T11:55:00.721Z,13.93
2023-11-30T11:57:36.166Z,11.77
2023-11-30T12:00:05.294Z,13.27
2023-11-30T12:02:35.073Z,13.17
2023-11-30T12:05:11.112Z,10.83
2023-11-30T12:07:50.661Z,13.17
2023-11-30T12:10:30.405Z,12.47
2023-11-30T12:12:59.145Z,10.97
2023-11-30T12:15:27.429Z,10.50
2023-11-30T12:17:56.100Z,13.33
2023-11-30T12:20:24.481Z,12.00
2023-11-30T12:22:54.057Z,13.13
2023-11-30T12:25:22.400Z,11.77
2023-11-30T12:27:51.417Z,12.27
2023-11-30T12:30:20.106Z,10.60
2023-11-30T12:32:50.189Z,11.93
2023-11-30T12:35:18.521Z,10.93
2023-11-30T12:37:46.915Z,9.37
2023-11-30T12:40:16.646Z,9.87
2023-11-30T12:42:44.902Z,11.53
2023-11-30T12:45:13.713Z,9.63
2023-11-30T12:47:42.767Z,9.50
2023-11-30T12:50:12.131Z,9.67
2023-11-30T12:52:40.476Z,10.83
2023-11-30T12:55:09.925Z,7.57
2023-11-30T12:57:40.805Z,10.57
2023-11-30T13:00:37.269Z,10.53
2023-11-30T13:03:05.505Z,9.67
2023-11-30T13:05:33.710Z,7.40
2023-11-30T13:08:02.024Z,9.13
2023-11-30T13:10:30.260Z,7.30
2023-11-30T13:13:00.234Z,8.53
2023-11-30T13:15:28.524Z,7.47
2023-11-30T13:17:56.852Z,7.47
2023-11-30T13:20:25.857Z,10.40
2023-11-30T13:22:54.082Z,9.37
2023-11-30T13:25:23.325Z,8.03
2023-11-30T13:27:51.863Z,10.23
2023-11-30T13:30:21.668Z,8.33
2023-11-30T13:32:49.965Z,11.07
2023-11-30T13:35:18.251Z,8.43
2023-11-30T13:37:46.684Z,10.97
2023-11-30T13:40:15.987Z,11.57
2023-11-30T13:42:44.564Z,12.10
2023-11-30T13:45:12.884Z,14.43
2023-11-30T13:47:48.627Z,16.90
2023-11-30T13:50:26.215Z,17.53
2023-11-30T13:52:59.797Z,16.93
2023-11-30T13:55:28.893Z,10.87
2023-11-30T13:57:57.362Z,8.87
2023-11-30T14:00:25.680Z,9.20
2023-11-30T14:02:55.505Z,10.33
2023-11-30T14:05:23.732Z,9.03
2023-11-30T14:07:52.625Z,10.17
2023-11-30T14:10:21.228Z,9.20
2023-11-30T14:12:49.461Z,9.63
2023-11-30T14:15:17.707Z,16.20
2023-11-30T14:17:46.002Z,15.83
2023-11-30T14:20:16.367Z,16.80
2023-11-30T14:22:46.086Z,15.77
2023-11-30T14:25:15.053Z,11.73
2023-11-30T14:27:45.019Z,12.37
2023-11-30T14:30:14.597Z,9.70
2023-11-30T14:32:42.898Z,9.73
2023-11-30T14:35:13.217Z,12.70
2023-11-30T14:37:43.401Z,10.70
2023-11-30T14:40:14.565Z,11.10
2023-11-30T14:42:42.980Z,10.60
2023-11-30T14:45:13.634Z,11.73
2023-11-30T14:47:44.538Z,10.13
2023-11-30T14:50:13.208Z,10.30
2023-11-30T14:52:45.873Z,9.70
2023-11-30T14:55:14.616Z,9.77
2023-11-30T14:57:44.218Z,9.60
2023-11-30T15:00:16.158Z,10.13
2023-11-30T15:02:44.539Z,9.07
2023-11-30T15:05:15.444Z,9.50
2023-11-30T15:07:45.412Z,10.00
2023-11-30T15:10:13.715Z,11.07
2023-11-30T15:12:41.951Z,10.00
2023-11-30T15:15:14.855Z,10.23
2023-11-30T15:17:45.609Z,9.90
2023-11-30T15:20:14.697Z,10.60
2023-11-30T15:22:43.592Z,10.13
2023-11-30T15:25:18.933Z,9.43
2023-11-30T15:27:48.225Z,8.40
2023-11-30T15:30:17.141Z,10.50
2023-11-30T15:32:45.758Z,11.50
2023-11-30T15:35:13.922Z,9.53
2023-11-30T15:37:47.322Z,9.30
2023-11-30T15:40:17.890Z,13.57
2023-11-30T15:42:46.651Z,11.23
2023-11-30T15:45:17.933Z,13.70
2023-11-30T15:47:46.494Z,14.43
2023-11-30T15:50:14.697Z,13.57
2023-11-30T15:52:43.314Z,14.47
2023-11-30T15:55:12.620Z,14.77
2023-11-30T15:57:42.500Z,13.67
2023-11-30T16:00:13.276Z,19.10
2023-11-30T16:02:42.096Z,15.00
2023-11-30T16:05:11.053Z,14.23
2023-11-30T16:07:39.229Z,13.20
2023-11-30T16:10:08.989Z,16.67
2023-11-30T16:12:37.216Z,16.37
2023-11-30T16:15:10.364Z,14.33
2023-11-30T16:17:38.667Z,14.67
2023-11-30T16:20:11.468Z,14.53
2023-11-30T16:22:40.337Z,13.67
2023-11-30T16:25:09.505Z,15.50
2023-11-30T16:27:38.084Z,14.77
2023-11-30T16:30:10.081Z,16.20
2023-11-30T16:32:38.391Z,13.67
2023-11-30T16:35:07.330Z,13.63
2023-11-30T16:37:35.546Z,13.70
2023-11-30T16:40:04.270Z,12.60
2023-11-30T16:42:32.764Z,12.57
2023-11-30T16:45:01.295Z,11.23
2023-11-30T16:47:30.880Z,9.40
2023-11-30T16:49:59.106Z,9.27
2023-11-30T16:52:27.300Z,9.80
2023-11-30T16:54:55.759Z,10.17
2023-11-30T16:57:24.734Z,10.80
2023-11-30T16:59:52.897Z,15.43
2023-11-30T17:02:21.095Z,11.50
2023-11-30T17:04:50.982Z,11.47
2023-11-30T17:07:20.384Z,11.90
2023-11-30T17:09:49.808Z,17.20
2023-11-30T17:12:18.270Z,14.47
2023-11-30T17:14:46.449Z,14.43
2023-11-30T17:17:14.622Z,12.57
2023-11-30T17:19:42.832Z,13.60
2023-11-30T17:22:13.049Z,15.93
2023-11-30T17:24:43.088Z,19.00
2023-11-30T17:27:11.397Z,14.60
2023-11-30T17:29:41.072Z,10.70
2023-11-30T17:32:09.913Z,14.30
2023-11-30T17:34:38.405Z,52.57
2023-11-30T17:37:07.014Z,49.97
2023-11-30T17:39:36.688Z,43.20
2023-11-30T17:42:05.044Z,34.23
2023-11-30T17:44:33.232Z,31.90
2023-11-30T17:47:01.477Z,40.43
2023-11-30T17:49:29.972Z,38.87
2023-11-30T17:51:58.152Z,44.70
2023-11-30T17:54:26.345Z,40.17
2023-11-30T17:56:55.883Z,36.43
2023-11-30T17:59:24.159Z,30.90
2023-11-30T18:01:52.595Z,24.33
2023-11-30T18:04:20.976Z,31.10
2023-11-30T18:06:49.311Z,31.13
2023-11-30T18:09:17.504Z,34.57
2023-11-30T18:11:45.721Z,40.23
2023-11-30T18:14:15.323Z,34.73
2023-11-30T18:16:43.622Z,35.37
2023-11-30T18:19:12.890Z,32.53
2023-11-30T18:21:41.208Z,31.47
2023-11-30T18:24:09.456Z,40.07
2023-11-30T18:26:37.718Z,34.53
2023-11-30T18:29:06.018Z,30.23
2023-11-30T18:31:36.235Z,32.80
2023-11-30T18:34:04.616Z,31.77
2023-11-30T18:36:32.881Z,26.03
2023-11-30T18:39:01.174Z,24.87
2023-11-30T18:41:29.436Z,22.60
2023-11-30T18:43:57.896Z,22.73
2023-11-30T18:46:26.057Z,17.90
2023-11-30T18:48:55.757Z,16.30
2023-11-30T18:51:29.492Z,20.37
2023-11-30T18:53:57.855Z,18.63
2023-11-30T18:56:28.666Z,23.87
2023-11-30T18:58:57.195Z,31.17
2023-11-30T19:01:26.072Z,37.67
2023-11-30T19:03:55.843Z,42.53
2023-11-30T19:06:25.492Z,44.17
2023-11-30T19:08:54.183Z,39.13
2023-11-30T19:11:23.252Z,31.23
2023-11-30T19:13:51.778Z,29.90
2023-11-30T19:16:21.878Z,27.20
2023-11-30T19:18:51.237Z,22.53
2023-11-30T19:21:21.025Z,24.17
2023-11-30T19:23:49.373Z,26.90
2023-11-30T19:26:17.947Z,24.30
2023-11-30T19:28:46.158Z,24.20
2023-11-30T19:31:15.589Z,24.70
2023-11-30T19:33:43.902Z,23.50
2023-11-30T19:36:12.644Z,24.37
2023-11-30T19:38:42.526Z,24.47
2023-11-30T19:41:10.870Z,23.50
2023-11-30T19:43:39.000Z,21.77
2023-11-30T19:46:07.570Z,22.73
2023-11-30T19:48:35.896Z,24.67
2023-11-30T19:51:05.746Z,25.60
2023-11-30T19:53:34.174Z,25.67
2023-11-30T19:56:03.697Z,21.57
2023-11-30T19:58:32.144Z,25.90
2023-11-30T20:01:00.385Z,22.83
2023-11-30T20:03:28.709Z,27.40
2023-11-30T20:05:57.132Z,22.60
2023-11-30T20:08:25.311Z,25.20
2023-11-30T20:10:53.476Z,24.90
2023-11-30T20:13:23.175Z,25.63
2023-11-30T20:15:51.426Z,25.67
2023-11-30T20:18:19.814Z,24.47
2023-11-30T20:20:48.454Z,26.57
2023-11-30T20:23:16.717Z,22.83
2023-11-30T20:25:44.991Z,20.80
2023-11-30T20:28:13.248Z,18.73
2023-11-30T20:30:42.910Z,20.03
2023-11-30T20:33:11.208Z,20.53
2023-11-30T20:35:39.710Z,18.53
2023-11-30T20:38:07.921Z,20.03
2023-11-30T20:40:36.200Z,16.17
2023-11-30T20:43:04.888Z,13.10
2023-11-30T20:45:33.601Z,14.57
2023-11-30T20:48:03.517Z,13.83
2023-11-30T20:50:31.748Z,12.17
2023-11-30T20:53:01.312Z,12.73
2023-11-30T20:55:29.446Z,11.80
2023-11-30T20:57:57.953Z,12.40
2023-11-30T21:00:26.229Z,10.77
2023-11-30T21:02:54.876Z,12.23
2023-11-30T21:05:24.469Z,9.83
2023-11-30T21:07:52.673Z,11.23
2023-11-30T21:10:20.840Z,11.87
2023-11-30T21:12:50.191Z,13.77
2023-11-30T21:15:18.875Z,13.93
2023-11-30T21:17:47.131Z,15.57
2023-11-30T21:20:15.406Z,14.07
2023-11-30T21:22:44.997Z,12.50
2023-11-30T21:25:14.801Z,12.90
2023-11-30T21:27:43.056Z,12.30
2023-11-30T21:30:12.286Z,12.70
2023-11-30T21:32:40.431Z,15.30
2023-11-30T21:35:09.207Z,13.87
2023-11-30T21:37:37.373Z,14.07
2023-11-30T21:40:08.050Z,11.67
2023-11-30T21:42:36.751Z,10.50
2023-11-30T21:45:05.523Z,9.70
2023-11-30T21:47:36.260Z,9.77
2023-11-30T21:50:15.072Z,10.20
2023-11-30T21:52:43.433Z,9.30
2023-11-30T21:55:13.282Z,8.73
2023-11-30T21:57:41.968Z,11.17
2023-11-30T22:00:13.401Z,11.93
2023-11-30T22:02:41.683Z,17.33
2023-11-30T22:05:11.231Z,12.73
2023-11-30T22:07:40.743Z,14.67
2023-11-30T22:10:10.429Z,14.93
2023-11-30T22:12:40.006Z,14.70
2023-11-30T22:15:09.440Z,17.53
2023-11-30T22:17:37.736Z,17.47
2023-11-30T22:20:06.757Z,14.17
2023-11-30T22:22:35.560Z,14.93
2023-11-30T22:25:04.205Z,15.57
2023-11-30T22:27:32.465Z,16.67
2023-11-30T22:30:02.208Z,16.57
2023-11-30T22:32:30.448Z,14.00
2023-11-30T22:34:58.695Z,14.83
2023-11-30T22:37:27.365Z,13.53
2023-11-30T22:39:55.568Z,12.13
2023-11-30T22:42:26.229Z,14.70
2023-11-30T22:44:54.666Z,14.90
2023-11-30T22:47:24.276Z,11.27
2023-11-30T22:49:53.461Z,12.27
2023-11-30T22:52:22.777Z,11.43
2023-11-30T22:54:51.743Z,11.40
2023-11-30T22:57:20.061Z,9.50
2023-11-30T22:59:48.306Z,9.37
2023-11-30T23:02:16.683Z,9.60
2023-11-30T23:04:46.836Z,10.57
2023-11-30T23:07:33.545Z,11.17
2023-11-30T23:10:01.893Z,10.07
2023-11-30T23:12:30.216Z,12.60
2023-11-30T23:14:58.461Z,13.83
2023-11-30T23:17:27.020Z,16.27
2023-11-30T23:19:57.021Z,12.97
2023-11-30T23:22:25.230Z,16.03
2023-11-30T23:24:53.492Z,13.53
2023-11-30T23:27:22.059Z,11.97
2023-11-30T23:29:50.350Z,12.73
2023-11-30T23:32:18.882Z,10.33
2023-11-30T23:34:47.581Z,12.27
2023-11-30T23:37:17.251Z,10.37
2023-11-30T23:39:45.612Z,8.77
2023-11-30T23:42:13.969Z,10.20
2023-11-30T23:44:42.799Z,9.07
2023-11-30T23:47:11.278Z,9.60
2023-11-30T23:49:39.671Z,12.37
2023-11-30T23:52:08.162Z,9.87
2023-11-30T23:54:37.975Z,9.70
2023-11-30T23:57:06.602Z,10.63
2023-11-30T23:59:35.128Z,11.83
